createdAt,value
2022-08-20T00:00:02.932Z,0.00
2022-08-20T00:01:02.993Z,0.00
2022-08-20T00:02:02.164Z,0.00
2022-08-20T00:03:02.147Z,0.00
2022-08-20T00:04:02.127Z,0.00
2022-08-20T00:05:02.126Z,0.00
2022-08-20T00:06:02.113Z,0.00
2022-08-20T00:07:02.040Z,0.00
2022-08-20T00:08:02.290Z,0.00
2022-08-20T00:09:02.222Z,0.00
2022-08-20T00:10:02.121Z,0.00
2022-08-20T00:11:02.001Z,0.00
2022-08-20T00:12:02.661Z,0.00
2022-08-20T00:13:02.610Z,0.00
2022-08-20T00:14:03.205Z,0.00
2022-08-20T00:15:02.662Z,0.00
2022-08-20T00:16:03.103Z,0.00
2022-08-20T00:17:02.115Z,0.00
2022-08-20T00:18:02.105Z,0.00
2022-08-20T00:19:01.984Z,0.00
2022-08-20T00:20:02.549Z,0.00
2022-08-20T00:21:02.180Z,0.00
2022-08-20T00:22:02.823Z,0.00
2022-08-20T00:23:05.255Z,0.00
2022-08-20T00:24:02.790Z,0.00
2022-08-20T00:25:02.728Z,0.00
2022-08-20T00:26:02.736Z,0.00
2022-08-20T00:27:02.351Z,0.00
2022-08-20T00:28:02.615Z,0.00
2022-08-20T00:29:02.566Z,0.00
2022-08-20T00:30:02.463Z,0.00
2022-08-20T00:31:02.431Z,0.00
2022-08-20T00:32:03.218Z,0.00
2022-08-20T00:33:02.997Z,0.00
2022-08-20T00:34:02.988Z,0.00
2022-08-20T00:35:02.941Z,0.00
2022-08-20T00:36:03.068Z,0.00
2022-08-20T00:37:02.770Z,0.00
2022-08-20T00:38:02.931Z,0.00
2022-08-20T00:39:02.974Z,0.00
2022-08-20T00:40:02.884Z,0.00
2022-08-20T00:41:02.826Z,0.00
2022-08-20T00:42:02.744Z,0.00
2022-08-20T00:43:02.742Z,0.00
2022-08-20T00:44:02.637Z,0.00
2022-08-20T00:45:02.566Z,0.00
2022-08-20T00:46:02.391Z,0.00
2022-08-20T00:47:03.036Z,0.00
2022-08-20T00:48:03.014Z,0.00
2022-08-20T00:49:03.313Z,0.00
2022-08-20T00:50:03.015Z,0.00
2022-08-20T00:51:02.925Z,0.00
2022-08-20T00:52:02.211Z,0.00
2022-08-20T00:53:02.762Z,0.00
2022-08-20T00:54:02.750Z,0.00
2022-08-20T00:55:02.718Z,0.00
2022-08-20T00:56:02.504Z,0.00
2022-08-20T00:57:03.069Z,0.00
2022-08-20T00:58:03.305Z,0.00
2022-08-20T00:59:03.329Z,0.00
2022-08-20T01:00:02.940Z,0.00
2022-08-20T01:01:02.849Z,0.00
2022-08-20T01:02:02.510Z,0.00
2022-08-20T01:03:02.467Z,0.00
2022-08-20T01:04:02.364Z,0.00
2022-08-20T01:05:02.369Z,0.00
2022-08-20T01:06:02.291Z,0.00
2022-08-20T01:07:02.788Z,0.00
2022-08-20T01:08:02.784Z,0.00
2022-08-20T01:09:02.760Z,0.00
2022-08-20T01:10:02.627Z,0.00
2022-08-20T01:11:02.588Z,0.00
2022-08-20T01:12:02.208Z,0.00
2022-08-20T01:13:02.364Z,0.00
2022-08-20T01:14:02.101Z,0.00
2022-08-20T01:15:02.084Z,0.00
2022-08-20T01:16:01.970Z,0.00
2022-08-20T01:17:02.641Z,0.00
2022-08-20T01:18:02.557Z,0.00
2022-08-20T01:19:02.311Z,0.00
2022-08-20T01:20:02.326Z,0.00
2022-08-20T01:21:02.145Z,0.00
2022-08-20T01:22:02.636Z,0.00
2022-08-20T01:23:02.454Z,0.00
2022-08-20T01:24:02.426Z,0.00
2022-08-20T01:25:02.409Z,0.00
2022-08-20T01:26:02.524Z,0.00
2022-08-20T01:27:02.429Z,0.00
2022-08-20T01:28:02.381Z,0.00
2022-08-20T01:29:02.331Z,0.00
2022-08-20T01:30:02.889Z,0.00
2022-08-20T01:31:02.377Z,0.00
2022-08-20T01:32:03.048Z,0.00
2022-08-20T01:33:02.968Z,0.00
2022-08-20T01:34:02.951Z,0.00
2022-08-20T01:35:02.956Z,0.00
2022-08-20T01:36:02.960Z,0.00
2022-08-20T01:37:02.692Z,0.00
2022-08-20T01:38:02.364Z,0.00
2022-08-20T01:39:02.354Z,0.00
2022-08-20T01:40:02.252Z,0.00
2022-08-20T01:41:02.350Z,0.00
2022-08-20T01:42:02.998Z,0.00
2022-08-20T01:43:02.809Z,0.00
2022-08-20T01:44:02.714Z,0.00
2022-08-20T01:45:04.343Z,0.00
2022-08-20T01:46:02.682Z,0.00
2022-08-20T01:47:03.343Z,0.00
2022-08-20T01:48:02.952Z,0.00
2022-08-20T01:49:02.919Z,0.00
2022-08-20T01:50:02.840Z,0.00
2022-08-20T01:51:02.755Z,0.00
2022-08-20T01:52:03.426Z,0.00
2022-08-20T01:53:03.202Z,0.00
2022-08-20T01:54:03.040Z,0.00
2022-08-20T01:55:02.842Z,0.00
2022-08-20T01:56:02.834Z,0.00
2022-08-20T01:57:03.720Z,0.00
2022-08-20T01:58:03.217Z,0.00
2022-08-20T01:59:03.336Z,0.00
2022-08-20T02:00:03.296Z,0.00
2022-08-20T02:01:03.320Z,0.00
2022-08-20T02:02:02.245Z,0.00
2022-08-20T02:03:02.887Z,0.00
2022-08-20T02:04:02.414Z,0.00
2022-08-20T02:05:02.453Z,0.00
2022-08-20T02:06:02.454Z,0.00
2022-08-20T02:07:02.448Z,0.00
2022-08-20T02:08:03.116Z,0.00
2022-08-20T02:09:02.761Z,0.00
2022-08-20T02:10:02.667Z,0.00
2022-08-20T02:11:02.626Z,0.00
2022-08-20T02:12:03.257Z,0.00
2022-08-20T02:13:02.892Z,0.00
2022-08-20T02:14:02.796Z,0.00
2022-08-20T02:15:02.776Z,0.00
2022-08-20T02:16:02.677Z,0.00
2022-08-20T02:17:02.650Z,0.00
2022-08-20T02:18:03.330Z,0.00
2022-08-20T02:19:02.769Z,0.00
2022-08-20T02:20:02.772Z,0.00
2022-08-20T02:21:02.761Z,0.00
2022-08-20T02:22:02.755Z,0.00
2022-08-20T02:23:03.084Z,0.00
2022-08-20T02:24:03.209Z,0.00
2022-08-20T02:25:03.206Z,0.00
2022-08-20T02:26:03.054Z,0.00
2022-08-20T02:27:03.681Z,0.00
2022-08-20T02:28:03.432Z,0.00
2022-08-20T02:29:03.373Z,0.00
2022-08-20T02:30:03.333Z,0.00
2022-08-20T02:31:03.316Z,0.00
2022-08-20T02:32:28.376Z,0.00
2022-08-20T02:33:02.301Z,0.00
2022-08-20T02:34:18.093Z,0.00
2022-08-20T02:35:02.372Z,0.00
2022-08-20T02:36:02.385Z,0.00
2022-08-20T02:37:03.119Z,0.00
2022-08-20T02:38:03.134Z,0.00
2022-08-20T02:39:03.002Z,0.00
2022-08-20T02:40:03.303Z,0.00
2022-08-20T02:41:03.309Z,0.00
2022-08-20T02:42:03.231Z,0.00
2022-08-20T02:43:03.238Z,0.00
2022-08-20T02:44:03.212Z,0.00
2022-08-20T02:45:03.355Z,0.00
2022-08-20T02:46:03.263Z,0.00
2022-08-20T02:47:02.986Z,0.00
2022-08-20T02:48:03.011Z,0.00
2022-08-20T02:49:02.918Z,0.00
2022-08-20T02:50:03.519Z,0.00
2022-08-20T02:51:03.436Z,0.00
2022-08-20T02:52:03.259Z,0.00
2022-08-20T02:53:03.850Z,0.00
2022-08-20T02:54:03.513Z,0.00
2022-08-20T02:55:03.666Z,0.00
2022-08-20T02:56:03.595Z,0.00
2022-08-20T02:57:02.576Z,0.00
2022-08-20T02:58:02.575Z,0.00
2022-08-20T02:59:02.911Z,0.00
2022-08-20T03:00:02.961Z,0.00
2022-08-20T03:01:03.113Z,0.00
2022-08-20T03:02:01.961Z,0.00
2022-08-20T03:03:02.180Z,0.00
2022-08-20T03:04:02.087Z,0.00
2022-08-20T03:05:02.137Z,0.00
2022-08-20T03:06:01.967Z,0.00
2022-08-20T03:07:02.640Z,0.00
2022-08-20T03:08:02.661Z,0.00
2022-08-20T03:09:02.715Z,0.00
2022-08-20T03:10:02.967Z,0.00
2022-08-20T03:11:03.076Z,0.00
2022-08-20T03:12:02.758Z,0.00
2022-08-20T03:13:02.672Z,0.00
2022-08-20T03:14:02.833Z,0.00
2022-08-20T03:15:02.747Z,0.00
2022-08-20T03:16:02.651Z,0.00
2022-08-20T03:17:02.901Z,0.00
2022-08-20T03:18:02.577Z,0.00
2022-08-20T03:19:02.451Z,0.00
2022-08-20T03:20:02.465Z,0.00
2022-08-20T03:21:02.386Z,0.00
2022-08-20T03:22:02.997Z,0.00
2022-08-20T03:23:02.899Z,0.00
2022-08-20T03:24:02.806Z,0.00
2022-08-20T03:25:03.417Z,0.00
2022-08-20T03:26:03.144Z,0.00
2022-08-20T03:27:03.080Z,0.00
2022-08-20T03:28:03.031Z,0.00
2022-08-20T03:29:03.189Z,0.00
2022-08-20T03:30:03.115Z,0.00
2022-08-20T03:31:03.046Z,0.00
2022-08-20T03:32:07.204Z,0.00
2022-08-20T03:33:02.656Z,0.00
2022-08-20T03:34:02.640Z,0.00
2022-08-20T03:35:02.553Z,0.00
2022-08-20T03:36:02.495Z,0.00
2022-08-20T03:37:03.110Z,0.00
2022-08-20T03:38:03.449Z,0.00
2022-08-20T03:39:03.132Z,0.00
2022-08-20T03:40:03.070Z,0.00
2022-08-20T03:41:03.318Z,0.00
2022-08-20T03:42:03.248Z,0.00
2022-08-20T03:43:03.515Z,0.00
2022-08-20T03:44:03.421Z,0.00
2022-08-20T03:45:03.374Z,0.00
2022-08-20T03:46:03.302Z,0.00
2022-08-20T03:47:02.977Z,0.00
2022-08-20T03:48:02.918Z,0.00
2022-08-20T03:49:02.915Z,0.00
2022-08-20T03:50:03.302Z,0.00
2022-08-20T03:51:03.090Z,0.00
2022-08-20T03:52:03.029Z,0.00
2022-08-20T03:53:03.196Z,0.00
2022-08-20T03:54:03.166Z,0.00
2022-08-20T03:55:03.024Z,4.00
2022-08-20T03:56:02.968Z,4.00
2022-08-20T03:57:02.644Z,4.00
2022-08-20T03:58:02.613Z,4.00
2022-08-20T03:59:02.518Z,0.00
2022-08-20T04:00:02.703Z,4.00
2022-08-20T04:01:02.538Z,4.00
2022-08-20T04:02:02.303Z,8.00
2022-08-20T04:03:01.983Z,4.00
2022-08-20T04:04:02.008Z,4.00
2022-08-20T04:05:02.048Z,8.00
2022-08-20T04:06:02.045Z,4.00
2022-08-20T04:07:02.694Z,4.00
2022-08-20T04:08:03.285Z,12.00
2022-08-20T04:09:02.903Z,12.00
2022-08-20T04:10:02.635Z,16.00
2022-08-20T04:11:02.558Z,16.00
2022-08-20T04:12:02.248Z,20.00
2022-08-20T04:13:02.205Z,24.00
2022-08-20T04:14:02.227Z,28.00
2022-08-20T04:15:02.265Z,32.00
2022-08-20T04:16:02.224Z,36.00
2022-08-20T04:17:02.535Z,40.00
2022-08-20T04:18:02.317Z,44.00
2022-08-20T04:19:02.845Z,40.00
2022-08-20T04:20:02.256Z,40.00
2022-08-20T04:21:01.992Z,44.00
2022-08-20T04:22:02.688Z,44.00
2022-08-20T04:23:02.643Z,48.00
2022-08-20T04:24:02.638Z,52.00
2022-08-20T04:25:02.248Z,52.00
2022-08-20T04:26:02.726Z,56.00
2022-08-20T04:27:03.135Z,64.00
2022-08-20T04:28:02.959Z,76.00
2022-08-20T04:29:03.027Z,104.00
2022-08-20T04:30:02.760Z,136.00
2022-08-20T04:31:02.824Z,164.00
2022-08-20T04:32:02.742Z,192.00
2022-08-20T04:33:02.445Z,220.00
2022-08-20T04:34:02.483Z,252.00
2022-08-20T04:35:02.267Z,284.00
2022-08-20T04:36:02.303Z,332.00
2022-08-20T04:37:02.934Z,372.00
2022-08-20T04:38:02.940Z,364.00
2022-08-20T04:39:02.715Z,348.00
2022-08-20T04:40:02.812Z,328.00
2022-08-20T04:41:02.986Z,288.00
2022-08-20T04:42:01.918Z,248.00
2022-08-20T04:43:02.162Z,224.00
2022-08-20T04:44:02.225Z,216.00
2022-08-20T04:45:02.330Z,232.00
2022-08-20T04:46:02.354Z,240.00
2022-08-20T04:47:02.302Z,248.00
2022-08-20T04:48:02.329Z,248.00
2022-08-20T04:49:02.337Z,252.00
2022-08-20T04:50:02.363Z,248.00
2022-08-20T04:51:02.421Z,224.00
2022-08-20T04:52:02.534Z,208.00
2022-08-20T04:53:02.524Z,208.00
2022-08-20T04:54:02.982Z,212.00
2022-08-20T04:55:02.957Z,212.00
2022-08-20T04:56:02.981Z,236.00
2022-08-20T04:57:02.055Z,276.00
2022-08-20T04:58:02.076Z,296.00
2022-08-20T04:59:02.451Z,316.00
2022-08-20T05:00:02.496Z,344.00
2022-08-20T05:01:02.122Z,376.00
2022-08-20T05:02:02.207Z,392.00
2022-08-20T05:03:02.393Z,388.00
2022-08-20T05:04:02.562Z,408.00
2022-08-20T05:05:02.597Z,456.00
2022-08-20T05:06:02.447Z,508.00
2022-08-20T05:07:02.443Z,556.00
2022-08-20T05:08:03.035Z,584.00
2022-08-20T05:09:02.845Z,556.00
2022-08-20T05:10:02.891Z,504.00
2022-08-20T05:11:24.140Z,456.00
2022-08-20T05:12:02.058Z,404.00
2022-08-20T05:13:02.149Z,368.00
2022-08-20T05:14:01.984Z,416.00
2022-08-20T05:15:02.017Z,508.00
2022-08-20T05:16:02.528Z,536.00
2022-08-20T05:17:02.436Z,584.00
2022-08-20T05:18:02.583Z,664.00
2022-08-20T05:19:02.605Z,724.00
2022-08-20T05:20:02.643Z,640.00
2022-08-20T05:21:02.675Z,504.00
2022-08-20T05:22:02.715Z,428.00
2022-08-20T05:23:03.162Z,412.00
2022-08-20T05:24:03.188Z,428.00
2022-08-20T05:25:03.218Z,444.00
2022-08-20T05:26:03.016Z,436.00
2022-08-20T05:27:02.273Z,424.00
2022-08-20T05:28:02.225Z,448.00
2022-08-20T05:29:02.568Z,524.00
2022-08-20T05:30:02.087Z,596.00
2022-08-20T05:31:02.147Z,676.00
2022-08-20T05:32:02.509Z,612.00
2022-08-20T05:33:02.656Z,600.00
2022-08-20T05:34:02.487Z,596.00
2022-08-20T05:35:02.519Z,572.00
2022-08-20T05:36:02.659Z,700.00
2022-08-20T05:37:02.436Z,680.00
2022-08-20T05:38:02.833Z,756.00
2022-08-20T05:39:02.945Z,756.00
2022-08-20T05:40:02.929Z,856.00
2022-08-20T05:41:02.862Z,896.00
2022-08-20T05:42:02.890Z,1000.00
2022-08-20T05:43:02.943Z,1056.00
2022-08-20T05:44:03.032Z,1028.00
2022-08-20T05:45:03.288Z,856.00
2022-08-20T05:46:03.066Z,896.00
2022-08-20T05:47:04.159Z,980.00
2022-08-20T05:48:03.480Z,1132.00
2022-08-20T05:49:02.710Z,1024.00
2022-08-20T05:50:02.629Z,1484.00
2022-08-20T05:51:02.088Z,1672.00
2022-08-20T05:52:02.855Z,1792.00
2022-08-20T05:53:03.036Z,1860.00
2022-08-20T05:54:03.237Z,1864.00
2022-08-20T05:55:03.147Z,1760.00
2022-08-20T05:56:03.303Z,1812.00
2022-08-20T05:57:03.200Z,1792.00
2022-08-20T05:58:03.298Z,1820.00
2022-08-20T05:59:03.432Z,1896.00
2022-08-20T06:00:03.511Z,2092.00
2022-08-20T06:01:03.642Z,1820.00
2022-08-20T06:02:02.862Z,1548.00
2022-08-20T06:03:03.032Z,1792.00
2022-08-20T06:04:02.890Z,2248.00
2022-08-20T06:05:02.896Z,2468.00
2022-08-20T06:06:02.565Z,2696.00
2022-08-20T06:07:02.767Z,2652.00
2022-08-20T06:08:07.681Z,2492.00
2022-08-20T06:09:02.592Z,1688.00
2022-08-20T06:10:02.707Z,1112.00
2022-08-20T06:11:02.763Z,1220.00
2022-08-20T06:12:02.950Z,1372.00
2022-08-20T06:13:03.125Z,1368.00
2022-08-20T06:14:03.196Z,1312.00
2022-08-20T06:15:02.753Z,1396.00
2022-08-20T06:16:02.810Z,860.00
2022-08-20T06:17:03.487Z,616.00
2022-08-20T06:18:07.154Z,592.00
2022-08-20T06:19:03.277Z,696.00
2022-08-20T06:20:03.472Z,1168.00
2022-08-20T06:21:03.553Z,1264.00
2022-08-20T06:22:06.778Z,1396.00
2022-08-20T06:23:02.612Z,1592.00
2022-08-20T06:24:02.771Z,1692.00
2022-08-20T06:25:02.971Z,2020.00
2022-08-20T06:26:03.094Z,1768.00
2022-08-20T06:27:02.927Z,2040.00
2022-08-20T06:28:03.016Z,2628.00
2022-08-20T06:29:03.294Z,1864.00
2022-08-20T06:30:02.888Z,1692.00
2022-08-20T06:31:02.812Z,1528.00
2022-08-20T06:32:03.577Z,1800.00
2022-08-20T06:33:03.311Z,2048.00
2022-08-20T06:34:03.443Z,2336.00
2022-08-20T06:35:03.783Z,2672.00
2022-08-20T06:36:03.343Z,2856.00
2022-08-20T06:37:03.123Z,3068.00
2022-08-20T06:38:03.188Z,2936.00
2022-08-20T06:39:03.414Z,2612.00
2022-08-20T06:40:03.468Z,2240.00
2022-08-20T06:41:03.296Z,2112.00
2022-08-20T06:42:03.399Z,1968.00
2022-08-20T06:43:03.506Z,2060.00
2022-08-20T06:44:03.592Z,2208.00
2022-08-20T06:45:03.040Z,2400.00
2022-08-20T06:46:03.172Z,2116.00
2022-08-20T06:47:03.021Z,2032.00
2022-08-20T06:48:02.953Z,2800.00
2022-08-20T06:49:03.099Z,3076.00
2022-08-20T06:50:03.172Z,3632.00
2022-08-20T06:51:03.240Z,4296.00
2022-08-20T06:52:03.669Z,4048.00
2022-08-20T06:53:04.091Z,3988.00
2022-08-20T06:54:03.607Z,4068.00
2022-08-20T06:55:03.737Z,3940.00
2022-08-20T06:56:03.865Z,3584.00
2022-08-20T06:57:03.323Z,3380.00
2022-08-20T06:58:03.485Z,3216.00
2022-08-20T06:59:03.456Z,3124.00
2022-08-20T07:00:03.069Z,2936.00
2022-08-20T07:01:09.256Z,2768.00
2022-08-20T07:02:02.993Z,2916.00
2022-08-20T07:03:03.093Z,3172.00
2022-08-20T07:04:02.931Z,3176.00
2022-08-20T07:05:02.885Z,2576.00
2022-08-20T07:06:02.957Z,2180.00
2022-08-20T07:07:03.061Z,2084.00
2022-08-20T07:08:03.041Z,2392.00
2022-08-20T07:09:02.786Z,3112.00
2022-08-20T07:10:02.915Z,4028.00
2022-08-20T07:11:02.937Z,4600.00
2022-08-20T07:12:02.819Z,4636.00
2022-08-20T07:13:02.770Z,4148.00
2022-08-20T07:14:02.830Z,4564.00
2022-08-20T07:15:02.501Z,4920.00
2022-08-20T07:16:02.654Z,5060.00
2022-08-20T07:17:02.813Z,4928.00
2022-08-20T07:18:02.795Z,4796.00
2022-08-20T07:19:02.900Z,4664.00
2022-08-20T07:20:02.381Z,4524.00
2022-08-20T07:21:02.502Z,4464.00
2022-08-20T07:22:03.196Z,4764.00
2022-08-20T07:23:02.665Z,4964.00
2022-08-20T07:24:02.731Z,4860.00
2022-08-20T07:25:02.878Z,5100.00
2022-08-20T07:26:03.211Z,5376.00
2022-08-20T07:27:03.388Z,5904.00
2022-08-20T07:28:03.000Z,6448.00
2022-08-20T07:29:03.142Z,6920.00
2022-08-20T07:30:03.436Z,7316.00
2022-08-20T07:31:12.343Z,7460.00
2022-08-20T07:32:03.559Z,7500.00
2022-08-20T07:33:03.513Z,7464.00
2022-08-20T07:34:03.590Z,7616.00
2022-08-20T07:35:03.643Z,7852.00
2022-08-20T07:36:03.385Z,7804.00
2022-08-20T07:37:02.789Z,8076.00
2022-08-20T07:38:02.719Z,8436.00
2022-08-20T07:39:05.935Z,8296.00
2022-08-20T07:40:02.316Z,7892.00
2022-08-20T07:41:02.482Z,7708.00
2022-08-20T07:42:03.311Z,7692.00
2022-08-20T07:43:03.056Z,8128.00
2022-08-20T07:44:03.091Z,8864.00
2022-08-20T07:45:03.209Z,9608.00
2022-08-20T07:46:03.115Z,10416.00
2022-08-20T07:47:03.304Z,11096.00
2022-08-20T07:48:03.210Z,11456.00
2022-08-20T07:49:02.930Z,12012.00
2022-08-20T07:50:03.246Z,12032.00
2022-08-20T07:51:03.235Z,12360.00
2022-08-20T07:52:03.478Z,12824.00
2022-08-20T07:53:03.063Z,12516.00
2022-08-20T07:54:03.372Z,12256.00
2022-08-20T07:55:03.249Z,10960.00
2022-08-20T07:56:03.233Z,10256.00
2022-08-20T07:57:03.010Z,10488.00
2022-08-20T07:58:02.923Z,10140.00
2022-08-20T07:59:02.403Z,10112.00
2022-08-20T08:00:02.462Z,9916.00
2022-08-20T08:01:02.841Z,10128.00
2022-08-20T08:02:03.525Z,10252.00
2022-08-20T08:03:03.436Z,10760.00
2022-08-20T08:04:03.360Z,10816.00
2022-08-20T08:05:03.415Z,10704.00
2022-08-20T08:06:03.488Z,10572.00
2022-08-20T08:07:02.603Z,10936.00
2022-08-20T08:08:06.839Z,10896.00
2022-08-20T08:09:03.058Z,11732.00
2022-08-20T08:10:03.253Z,14252.00
2022-08-20T08:11:03.056Z,15648.00
2022-08-20T08:12:03.061Z,15328.00
2022-08-20T08:13:03.185Z,15424.00
2022-08-20T08:14:03.254Z,13820.00
2022-08-20T08:15:03.339Z,13036.00
2022-08-20T08:16:03.512Z,12632.00
2022-08-20T08:17:02.772Z,12088.00
2022-08-20T08:18:02.933Z,12100.00
2022-08-20T08:19:03.047Z,12472.00
2022-08-20T08:20:03.207Z,12920.00
2022-08-20T08:21:02.804Z,13976.00
2022-08-20T08:22:02.957Z,26848.00
2022-08-20T08:23:03.278Z,30304.00
2022-08-20T08:24:03.427Z,28704.00
2022-08-20T08:25:03.534Z,29088.00
2022-08-20T08:26:03.422Z,27680.00
2022-08-20T08:27:03.136Z,17280.00
2022-08-20T08:28:03.021Z,14460.00
2022-08-20T08:29:03.078Z,21728.00
2022-08-20T08:30:03.149Z,18656.00
2022-08-20T08:31:03.287Z,19616.00
2022-08-20T08:32:03.395Z,12372.00
2022-08-20T08:33:03.721Z,15072.00
2022-08-20T08:34:03.594Z,27840.00
2022-08-20T08:35:03.579Z,18656.00
2022-08-20T08:36:03.703Z,29952.00
2022-08-20T08:37:02.813Z,31072.00
2022-08-20T08:38:02.917Z,28800.00
2022-08-20T08:39:02.856Z,18656.00
2022-08-20T08:40:02.910Z,23520.00
2022-08-20T08:41:02.702Z,18528.00
2022-08-20T08:42:02.856Z,25504.00
2022-08-20T08:43:02.973Z,20224.00
2022-08-20T08:44:03.054Z,34496.00
2022-08-20T08:45:03.330Z,24224.00
2022-08-20T08:46:02.914Z,20256.00
2022-08-20T08:47:02.888Z,23136.00
2022-08-20T08:48:03.176Z,24928.00
2022-08-20T08:49:03.351Z,17152.00
2022-08-20T08:50:03.134Z,15520.00
2022-08-20T08:51:03.282Z,30304.00
2022-08-20T08:52:03.221Z,20384.00
2022-08-20T08:53:03.061Z,18816.00
2022-08-20T08:54:06.586Z,16608.00
2022-08-20T08:55:03.149Z,16096.00
2022-08-20T08:56:03.506Z,14812.00
2022-08-20T08:57:03.683Z,15744.00
2022-08-20T08:58:16.760Z,17440.00
2022-08-20T08:59:03.668Z,19232.00
2022-08-20T09:00:05.299Z,17088.00
2022-08-20T09:01:06.848Z,18272.00
2022-08-20T09:02:03.343Z,18816.00
2022-08-20T09:03:03.446Z,16448.00
2022-08-20T09:04:03.666Z,16256.00
2022-08-20T09:05:03.235Z,15840.00
2022-08-20T09:06:03.334Z,14572.00
2022-08-20T09:07:03.947Z,12972.00
2022-08-20T09:08:03.490Z,12108.00
2022-08-20T09:09:03.617Z,11224.00
2022-08-20T09:10:03.953Z,11396.00
2022-08-20T09:11:04.116Z,12492.00
2022-08-20T09:12:02.903Z,13108.00
2022-08-20T09:13:02.983Z,14296.00
2022-08-20T09:14:02.993Z,16800.00
2022-08-20T09:15:03.045Z,20480.00
2022-08-20T09:16:02.944Z,29440.00
2022-08-20T09:17:03.038Z,24320.00
2022-08-20T09:18:03.291Z,21472.00
2022-08-20T09:19:02.979Z,18688.00
2022-08-20T09:20:03.326Z,13852.00
2022-08-20T09:21:03.456Z,10980.00
2022-08-20T09:22:03.228Z,11012.00
2022-08-20T09:23:03.454Z,12124.00
2022-08-20T09:24:03.395Z,12052.00
2022-08-20T09:25:03.504Z,11528.00
2022-08-20T09:26:03.542Z,10968.00
2022-08-20T09:27:03.599Z,10692.00
2022-08-20T09:28:03.877Z,10836.00
2022-08-20T09:29:03.983Z,10680.00
2022-08-20T09:30:03.802Z,9772.00
2022-08-20T09:31:04.472Z,9848.00
2022-08-20T09:32:02.978Z,9968.00
2022-08-20T09:33:03.050Z,10772.00
2022-08-20T09:34:03.218Z,12192.00
2022-08-20T09:35:05.669Z,26560.00
2022-08-20T09:36:03.301Z,38624.00
2022-08-20T09:37:03.288Z,40896.00
2022-08-20T09:38:02.996Z,39264.00
2022-08-20T09:39:03.287Z,37472.00
2022-08-20T09:40:03.548Z,27648.00
2022-08-20T09:41:03.645Z,39392.00
2022-08-20T09:42:03.399Z,39648.00
2022-08-20T09:43:03.864Z,36000.00
2022-08-20T09:44:03.701Z,36768.00
2022-08-20T09:45:03.541Z,21696.00
2022-08-20T09:46:03.522Z,28672.00
2022-08-20T09:47:03.656Z,31264.00
2022-08-20T09:48:03.525Z,35072.00
2022-08-20T09:49:03.632Z,33824.00
2022-08-20T09:50:03.691Z,35808.00
2022-08-20T09:51:03.419Z,35104.00
2022-08-20T09:52:03.195Z,20192.00
2022-08-20T09:53:03.174Z,40928.00
2022-08-20T09:54:03.248Z,21664.00
2022-08-20T09:55:03.283Z,39648.00
2022-08-20T09:56:03.367Z,16096.00
2022-08-20T09:57:03.330Z,14744.00
2022-08-20T09:58:03.109Z,13988.00
2022-08-20T09:59:03.285Z,14124.00
2022-08-20T10:00:03.386Z,13840.00
2022-08-20T10:01:03.606Z,32736.00
2022-08-20T10:02:03.519Z,36928.00
2022-08-20T10:03:03.410Z,37344.00
2022-08-20T10:04:03.488Z,37024.00
2022-08-20T10:05:03.128Z,37600.00
2022-08-20T10:06:03.349Z,34432.00
2022-08-20T10:07:03.413Z,39680.00
2022-08-20T10:08:03.311Z,41568.00
2022-08-20T10:09:03.716Z,44704.00
2022-08-20T10:10:03.719Z,46592.00
2022-08-20T10:11:03.532Z,18368.00
2022-08-20T10:12:02.910Z,13936.00
2022-08-20T10:13:02.975Z,13280.00
2022-08-20T10:14:03.113Z,12744.00
2022-08-20T10:15:02.879Z,13596.00
2022-08-20T10:16:02.988Z,15584.00
2022-08-20T10:17:03.306Z,20960.00
2022-08-20T10:18:03.309Z,40160.00
2022-08-20T10:19:03.399Z,39168.00
2022-08-20T10:20:03.545Z,41760.00
2022-08-20T10:21:03.122Z,40384.00
2022-08-20T10:22:02.832Z,41760.00
2022-08-20T10:23:02.902Z,40640.00
2022-08-20T10:24:02.926Z,19904.00
2022-08-20T10:25:02.381Z,13000.00
2022-08-20T10:26:02.804Z,11668.00
2022-08-20T10:27:03.561Z,11028.00
2022-08-20T10:28:03.534Z,11228.00
2022-08-20T10:29:03.213Z,11068.00
2022-08-20T10:30:03.758Z,11540.00
2022-08-20T10:31:03.186Z,12944.00
2022-08-20T10:32:03.117Z,33088.00
2022-08-20T10:33:03.268Z,15120.00
2022-08-20T10:34:03.287Z,13372.00
2022-08-20T10:35:03.231Z,30176.00
2022-08-20T10:36:02.962Z,32064.00
2022-08-20T10:37:03.798Z,26080.00
2022-08-20T10:38:03.902Z,28768.00
2022-08-20T10:39:03.416Z,13928.00
2022-08-20T10:40:03.582Z,11272.00
2022-08-20T10:41:03.406Z,11404.00
2022-08-20T10:42:03.456Z,19168.00
2022-08-20T10:43:03.055Z,15480.00
2022-08-20T10:44:03.146Z,16320.00
2022-08-20T10:45:03.058Z,12016.00
2022-08-20T10:46:03.290Z,13664.00
2022-08-20T10:47:03.932Z,16896.00
2022-08-20T10:48:03.995Z,15744.00
2022-08-20T10:49:03.403Z,15488.00
2022-08-20T10:50:03.620Z,12960.00
2022-08-20T10:51:03.529Z,12260.00
2022-08-20T10:52:03.288Z,9796.00
2022-08-20T10:53:03.279Z,9008.00
2022-08-20T10:54:03.143Z,9980.00
2022-08-20T10:55:03.097Z,8352.00
2022-08-20T10:56:02.798Z,8040.00
2022-08-20T10:57:03.680Z,7868.00
2022-08-20T10:58:03.429Z,8584.00
2022-08-20T10:59:03.414Z,9936.00
2022-08-20T11:00:03.438Z,10484.00
2022-08-20T11:01:03.120Z,10672.00
2022-08-20T11:02:03.871Z,10752.00
2022-08-20T11:03:03.771Z,11264.00
2022-08-20T11:04:03.847Z,10404.00
2022-08-20T11:05:03.314Z,9536.00
2022-08-20T11:06:03.646Z,10276.00
2022-08-20T11:07:02.677Z,12180.00
2022-08-20T11:08:03.036Z,13600.00
2022-08-20T11:09:03.346Z,14296.00
2022-08-20T11:10:03.033Z,12400.00
2022-08-20T11:11:03.318Z,12304.00
2022-08-20T11:12:02.810Z,13780.00
2022-08-20T11:13:03.060Z,12952.00
2022-08-20T11:14:03.431Z,12620.00
2022-08-20T11:15:02.843Z,12620.00
2022-08-20T11:16:02.971Z,9380.00
2022-08-20T11:17:03.075Z,8932.00
2022-08-20T11:18:03.456Z,8772.00
2022-08-20T11:19:03.349Z,8856.00
2022-08-20T11:20:03.545Z,12200.00
2022-08-20T11:21:03.614Z,18016.00
2022-08-20T11:22:03.669Z,19808.00
2022-08-20T11:23:02.946Z,20416.00
2022-08-20T11:24:03.259Z,22304.00
2022-08-20T11:25:02.941Z,30400.00
2022-08-20T11:26:02.976Z,28544.00
2022-08-20T11:27:03.129Z,10680.00
2022-08-20T11:28:03.339Z,9440.00
2022-08-20T11:29:03.705Z,8628.00
2022-08-20T11:30:03.698Z,8280.00
2022-08-20T11:31:03.754Z,7520.00
2022-08-20T11:32:03.590Z,7432.00
2022-08-20T11:33:02.945Z,30528.00
2022-08-20T11:34:03.058Z,28800.00
2022-08-20T11:35:14.074Z,24160.00
2022-08-20T11:36:02.838Z,28288.00
2022-08-20T11:37:02.919Z,10380.00
2022-08-20T11:38:03.275Z,10752.00
2022-08-20T11:39:03.910Z,10572.00
2022-08-20T11:40:03.866Z,12544.00
2022-08-20T11:41:03.758Z,11444.00
2022-08-20T11:42:03.918Z,10920.00
2022-08-20T11:43:14.621Z,10752.00
2022-08-20T11:44:20.700Z,11588.00
2022-08-20T11:45:03.673Z,17984.00
2022-08-20T11:46:03.784Z,24224.00
2022-08-20T11:47:03.439Z,18592.00
2022-08-20T11:48:02.987Z,14876.00
2022-08-20T11:49:03.424Z,16672.00
2022-08-20T11:50:03.274Z,11920.00
2022-08-20T11:51:02.903Z,34496.00
2022-08-20T11:52:02.914Z,13348.00
2022-08-20T11:53:03.331Z,14388.00
2022-08-20T11:54:03.888Z,13028.00
2022-08-20T11:55:03.837Z,13220.00
2022-08-20T11:56:03.773Z,16832.00
2022-08-20T11:57:03.661Z,16992.00
2022-08-20T11:58:03.622Z,9388.00
2022-08-20T11:59:03.499Z,8820.00
2022-08-20T12:00:03.891Z,9160.00
2022-08-20T12:01:03.833Z,12052.00
2022-08-20T12:02:05.356Z,14848.00
2022-08-20T12:03:03.122Z,11216.00
2022-08-20T12:04:03.035Z,12936.00
2022-08-20T12:05:02.822Z,13372.00
2022-08-20T12:06:03.058Z,11712.00
2022-08-20T12:07:02.720Z,8696.00
2022-08-20T12:08:02.106Z,7904.00
2022-08-20T12:09:01.993Z,7552.00
2022-08-20T12:10:02.214Z,8384.00
2022-08-20T12:11:02.433Z,8696.00
2022-08-20T12:12:02.487Z,11908.00
2022-08-20T12:13:04.674Z,9004.00
2022-08-20T12:14:03.181Z,11796.00
2022-08-20T12:15:03.248Z,8564.00
2022-08-20T12:16:03.339Z,9104.00
2022-08-20T12:17:03.193Z,9292.00
2022-08-20T12:18:02.604Z,9656.00
2022-08-20T12:19:02.524Z,12216.00
2022-08-20T12:20:02.482Z,12492.00
2022-08-20T12:21:02.847Z,13312.00
2022-08-20T12:22:21.375Z,11256.00
2022-08-20T12:23:02.868Z,10656.00
2022-08-20T12:24:02.903Z,10660.00